< < Back
Terminal Aerodrome Forecast


Current Version              Previous Versions:   1  2  3  4  5  6  7  8  9  

Terminal Aerodrome Forecast

335
FTUS42 KGSP 301130
TAFGSP
TAF
KGSP 301130Z 3012/3112 22003KT 5SM BR SCT250
      TEMPO 3012/3013 P6SM NSW
     FM301300 36003KT P6SM SCT050
     FM301800 36004KT P6SM VCSH BKN045
      TEMPO 3019/3022 VRB10G20KT 4SM TSRA BKN040CB
     FM310000 35008KT P6SM SCT050=



Latest METAR

673
SAUS70 KWBC 310300 RRE
MTRGSP
METAR KGSP 310253Z 00000KT 10SM CLR 28/22 A2995 RMK AO2 SLP127 T02780222
53018


USA.gov is the U.S. government's official web portal to all federal, state and local government web resources and services.